Time;durP1;ratioP1;P1;durP2;ratioP2;P2;SDS_P1;SDS_P2;PMS_P1;PMS_P2;Temp;Humidity;BMP_temperature;BMP_pressure;BME280_temperature;BME280_humidity;BME280_pressure;Samples;Min_cycle;Max_cycle;Signal;HPM_P1;HPM_P2
2021/04/29 00:02:08;;;;;;;4.93;3.73;;;8.60;99.90;;;;;;5056678;28;20189;-82
2021/04/29 00:04:34;;;;;;;4.40;3.63;;;8.70;99.90;;;;;;5037568;28;20225;-83
2021/04/29 00:07:00;;;;;;;7.67;4.67;;;8.70;99.90;;;;;;5022592;28;20224;-82
2021/04/29 00:09:25;;;;;;;6.00;4.13;;;8.70;99.90;;;;;;5022951;28;20215;-82
2021/04/29 00:11:51;;;;;;;7.63;4.13;;;8.70;99.90;;;;;;5038804;28;20305;-82
2021/04/29 00:14:17;;;;;;;4.30;3.83;;;8.70;99.90;;;;;;5055552;28;20648;-82
2021/04/29 00:16:44;;;;;;;4.00;3.57;;;8.80;99.90;;;;;;5057243;28;20201;-82
2021/04/29 00:19:10;;;;;;;6.20;3.50;;;8.80;99.90;;;;;;5038542;28;20224;-83
2021/04/29 00:21:37;;;;;;;6.17;3.10;;;8.80;99.90;;;;;;5039332;28;20230;-83
2021/04/29 00:24:03;;;;;;;3.00;2.73;;;8.80;99.90;;;;;;5072319;28;20217;-84
2021/04/29 00:26:29;;;;;;;9.93;4.10;;;8.80;99.90;;;;;;5055896;28;20181;-82
2021/04/29 00:28:55;;;;;;;3.50;2.80;;;8.80;99.90;;;;;;5039356;28;20189;-82
2021/04/29 00:31:22;;;;;;;6.83;3.50;;;8.70;99.90;;;;;;5072509;28;20319;-83
2021/04/29 00:33:48;;;;;;;4.03;2.97;;;8.70;99.90;;;;;;5054868;28;20318;-82
2021/04/29 00:36:13;;;;;;;4.63;3.13;;;8.70;99.90;;;;;;5053301;28;21155;-82
2021/04/29 00:38:39;;;;;;;7.33;3.70;;;8.70;99.90;;;;;;5037436;28;20228;-82
2021/04/29 00:41:06;;;;;;;16.73;4.83;;;8.80;99.90;;;;;;5032341;28;20246;-82
2021/04/29 00:43:32;;;;;;;6.07;2.87;;;8.80;99.90;;;;;;5037463;28;21118;-82
2021/04/29 00:45:58;;;;;;;5.17;3.67;;;8.80;99.90;;;;;;5053963;28;20743;-82
2021/04/29 00:48:24;;;;;;;6.13;3.90;;;8.90;99.90;;;;;;5054217;28;20235;-83
2021/04/29 00:50:50;;;;;;;7.77;4.70;;;8.90;99.90;;;;;;5054569;28;20233;-84
2021/04/29 00:53:17;;;;;;;8.80;4.30;;;8.90;99.90;;;;;;5034793;28;20209;-81
2021/04/29 00:55:42;;;;;;;9.17;3.20;;;8.90;99.90;;;;;;5058531;28;20234;-82
2021/04/29 00:58:08;;;;;;;10.13;3.83;;;8.80;99.90;;;;;;5037667;28;20241;-82
2021/04/29 01:00:37;;;;;;;8.17;4.30;;;8.80;99.90;;;;;;5072273;28;21111;-82
2021/04/29 01:03:41;;;;;;;6.00;3.63;;;8.80;99.90;;;;;;5054271;28;20224;-83
2021/04/29 01:06:16;;;;;;;4.83;3.27;;;8.80;99.90;;;;;;5055597;28;21042;-84
2021/04/29 01:09:00;;;;;;;5.40;3.57;;;8.80;99.90;;;;;;5052274;28;20219;-82
2021/04/29 01:11:29;;;;;;;7.97;3.43;;;8.80;99.90;;;;;;5052656;28;20192;-84
2021/04/29 01:13:58;;;;;;;6.43;4.13;;;8.80;99.90;;;;;;5052749;28;20209;-83
2021/04/29 01:16:25;;;;;;;4.53;3.57;;;8.90;99.90;;;;;;5053961;28;20227;-83
2021/04/29 01:18:53;;;;;;;3.00;2.80;;;8.90;99.90;;;;;;5040529;28;20220;-82
2021/04/29 01:21:20;;;;;;;6.30;3.40;;;8.90;99.90;;;;;;5054013;28;20213;-81
2021/04/29 01:23:57;;;;;;;6.03;3.73;;;8.90;99.90;;;;;;5021411;28;20221;-82
2021/04/29 01:26:29;;;;;;;6.63;3.97;;;8.90;99.90;;;;;;5071477;28;20204;-82
2021/04/29 01:28:56;;;;;;;8.43;4.53;;;8.90;99.90;;;;;;5074264;28;20541;-82
2021/04/29 01:31:31;;;;;;;10.93;5.30;;;8.90;99.90;;;;;;5038626;28;20233;-84
2021/04/29 01:33:58;;;;;;;5.80;4.33;;;8.90;99.90;;;;;;5054604;28;20385;-81
2021/04/29 01:36:26;;;;;;;3.93;3.27;;;8.90;99.90;;;;;;5038564;28;20303;-82
2021/04/29 01:38:52;;;;;;;7.07;4.87;;;8.90;99.90;;;;;;5054067;28;20220;-82
2021/04/29 01:41:18;;;;;;;5.53;3.80;;;8.90;99.90;;;;;;5053844;28;20239;-84
2021/04/29 01:43:44;;;;;;;6.73;2.90;;;8.90;99.90;;;;;;5055820;28;20199;-81
2021/04/29 01:46:11;;;;;;;8.47;3.57;;;8.90;99.90;;;;;;5037603;28;21090;-83
2021/04/29 01:48:37;;;;;;;3.10;2.90;;;8.90;99.90;;;;;;5052564;28;20213;-82
2021/04/29 01:51:03;;;;;;;6.77;3.77;;;8.90;99.90;;;;;;5052508;28;20209;-82
2021/04/29 01:53:29;;;;;;;10.57;4.53;;;8.90;99.90;;;;;;5021687;28;20216;-82
2021/04/29 01:55:56;;;;;;;4.00;3.60;;;8.90;99.90;;;;;;5040033;28;20223;-81
2021/04/29 01:58:23;;;;;;;7.00;2.37;;;8.80;99.90;;;;;;5036913;28;20279;-82
2021/04/29 02:00:51;;;;;;;4.03;2.80;;;8.80;99.90;;;;;;5052027;28;20233;-83
2021/04/29 02:03:18;;;;;;;12.67;4.83;;;8.80;99.90;;;;;;5034790;28;20239;-84
2021/04/29 02:05:43;;;;;;;4.50;2.90;;;8.70;99.90;;;;;;5037029;28;20759;-81
2021/04/29 02:08:09;;;;;;;4.67;3.43;;;8.70;99.90;;;;;;5035293;28;20197;-84
2021/04/29 02:10:35;;;;;;;4.00;2.07;;;8.70;99.90;;;;;;5047723;28;20568;-82
2021/04/29 02:13:02;;;;;;;5.00;2.77;;;8.70;99.90;;;;;;5065949;28;20229;-81
2021/04/29 02:15:31;;;;;;;5.07;2.90;;;8.70;99.90;;;;;;5049372;28;20574;-83
2021/04/29 02:18:01;;;;;;;4.90;2.90;;;8.70;99.90;;;;;;5047211;28;20212;-81
2021/04/29 02:20:29;;;;;;;5.10;3.53;;;8.70;99.90;;;;;;5047053;28;20185;-84
2021/04/29 02:22:55;;;;;;;4.03;3.47;;;8.70;99.90;;;;;;5071937;28;20193;-85
2021/04/29 02:25:28;;;;;;;5.00;3.70;;;8.70;99.90;;;;;;5052060;28;20220;-81
2021/04/29 02:27:58;;;;;;;5.93;3.87;;;8.70;99.90;;;;;;5050899;28;20335;-81
2021/04/29 02:30:26;;;;;;;4.10;3.53;;;8.70;99.90;;;;;;5071701;28;20701;-82
2021/04/29 02:32:52;;;;;;;5.30;3.57;;;8.70;99.90;;;;;;5036250;28;20220;-81
2021/04/29 02:35:18;;;;;;;4.83;3.50;;;8.70;99.90;;;;;;5052056;28;20226;-81
2021/04/29 02:37:46;;;;;;;5.40;3.80;;;8.70;99.90;;;;;;5071018;28;20182;-83
2021/04/29 02:40:14;;;;;;;6.57;3.80;;;8.70;99.90;;;;;;5054189;28;20221;-82
2021/04/29 02:42:40;;;;;;;4.07;3.17;;;8.70;99.90;;;;;;5074972;28;20235;-82
2021/04/29 02:45:09;;;;;;;7.43;3.40;;;8.70;99.90;;;;;;5037022;28;20225;-82
2021/04/29 02:47:39;;;;;;;7.63;3.87;;;8.70;99.90;;;;;;5052528;28;20768;-83
2021/04/29 02:50:09;;;;;;;5.43;4.30;;;8.70;99.90;;;;;;5053225;28;20642;-83
2021/04/29 02:52:37;;;;;;;6.70;2.83;;;8.70;99.90;;;;;;5051582;28;20282;-81
2021/04/29 02:55:05;;;;;;;3.70;2.80;;;8.70;99.90;;;;;;5037053;28;20213;-82
2021/04/29 02:57:30;;;;;;;5.77;3.43;;;8.70;99.90;;;;;;5052790;28;20275;-82
2021/04/29 02:59:56;;;;;;;6.73;3.07;;;8.70;99.90;;;;;;5053530;28;20299;-81
2021/04/29 03:02:22;;;;;;;3.30;2.50;;;8.70;99.90;;;;;;5054170;28;20929;-81
2021/04/29 03:04:49;;;;;;;6.10;3.40;;;8.70;99.90;;;;;;5037587;28;20713;-80
2021/04/29 03:07:15;;;;;;;4.30;3.13;;;8.70;99.90;;;;;;5071614;28;20216;-82
2021/04/29 03:09:40;;;;;;;4.67;4.07;;;8.70;99.90;;;;;;5069509;28;20646;-82
2021/04/29 03:12:07;;;;;;;4.47;3.80;;;8.70;99.90;;;;;;5068660;28;20620;-82
2021/04/29 03:14:33;;;;;;;3.83;3.37;;;8.70;99.90;;;;;;5036470;28;20216;-84
2021/04/29 03:16:58;;;;;;;5.80;3.07;;;8.70;99.90;;;;;;5059674;28;20246;-80
2021/04/29 03:19:24;;;;;;;8.07;3.40;;;8.70;99.90;;;;;;5038973;28;20629;-80
2021/04/29 03:21:50;;;;;;;5.03;2.27;;;8.70;99.90;;;;;;5056593;28;20892;-82
2021/04/29 03:24:16;;;;;;;3.90;2.77;;;8.70;99.90;;;;;;5056589;28;20221;-82
2021/04/29 03:26:42;;;;;;;4.43;3.23;;;8.70;99.90;;;;;;5056782;28;20228;-84
2021/04/29 03:29:07;;;;;;;6.10;3.67;;;8.70;99.90;;;;;;5051020;28;20177;-84
2021/04/29 03:31:34;;;;;;;6.40;4.17;;;8.70;99.90;;;;;;5037596;28;20221;-83
2021/04/29 03:34:00;;;;;;;5.27;3.10;;;8.70;99.90;;;;;;5020497;28;20319;-85
2021/04/29 03:36:25;;;;;;;7.03;4.67;;;8.60;99.90;;;;;;5055411;28;20224;-81
2021/04/29 03:38:52;;;;;;;5.73;3.13;;;8.60;99.90;;;;;;5040351;28;20216;-82
2021/04/29 03:41:18;;;;;;;4.70;3.70;;;8.60;99.90;;;;;;5049081;28;20223;-82
2021/04/29 03:43:44;;;;;;;6.97;3.80;;;8.60;99.90;;;;;;5039808;28;20606;-82
2021/04/29 03:46:09;;;;;;;3.37;2.80;;;8.60;99.90;;;;;;5057958;28;20235;-82
2021/04/29 03:48:35;;;;;;;4.70;4.17;;;8.60;99.90;;;;;;5074475;28;20217;-82
2021/04/29 03:51:01;;;;;;;4.73;3.27;;;8.60;99.90;;;;;;5040202;28;20327;-81
2021/04/29 03:53:27;;;;;;;7.33;4.40;;;8.60;99.90;;;;;;5076530;28;20258;-82
2021/04/29 03:55:52;;;;;;;5.40;4.40;;;8.60;99.90;;;;;;5076532;28;20945;-83
2021/04/29 03:58:18;;;;;;;6.03;3.60;;;8.60;99.90;;;;;;5054687;28;21658;-83
2021/04/29 04:00:44;;;;;;;3.97;3.57;;;8.60;99.90;;;;;;5041275;28;20225;-82
2021/04/29 04:03:10;;;;;;;3.40;2.70;;;8.60;99.90;;;;;;5040311;28;20272;-82
2021/04/29 04:05:36;;;;;;;6.10;3.33;;;8.60;99.90;;;;;;5053958;28;20828;-83
2021/04/29 04:08:01;;;;;;;4.33;2.83;;;8.60;99.90;;;;;;5039970;28;20201;-83
2021/04/29 04:10:27;;;;;;;6.13;4.03;;;8.60;99.90;;;;;;5073345;28;20352;-84
2021/04/29 04:12:53;;;;;;;8.50;3.67;;;8.50;99.90;;;;;;5054575;28;20328;-81
2021/04/29 04:15:19;;;;;;;5.53;2.70;;;8.50;99.90;;;;;;5037942;28;20243;-83
2021/04/29 04:17:44;;;;;;;4.47;3.20;;;8.50;99.90;;;;;;5023963;28;20254;-80
2021/04/29 04:20:11;;;;;;;19.23;3.93;;;8.60;99.90;;;;;;5055552;28;20630;-80
2021/04/29 04:22:36;;;;;;;5.63;3.00;;;8.50;99.90;;;;;;5023926;28;20220;-80
2021/04/29 04:25:03;;;;;;;6.03;3.47;;;8.50;99.90;;;;;;5025444;28;21417;-82
2021/04/29 04:27:29;;;;;;;6.47;3.20;;;8.50;99.90;;;;;;5070470;28;20237;-80
2021/04/29 04:29:55;;;;;;;4.57;3.53;;;8.50;99.90;;;;;;5063950;28;20251;-82
2021/04/29 04:32:20;;;;;;;6.77;4.77;;;8.50;99.90;;;;;;5055486;28;21224;-84
2021/04/29 04:34:46;;;;;;;9.60;3.87;;;8.50;99.90;;;;;;5041248;28;20669;-83
2021/04/29 04:37:12;;;;;;;12.37;3.33;;;8.50;99.90;;;;;;5056464;28;20220;-81
2021/04/29 04:39:38;;;;;;;3.93;2.63;;;8.50;99.90;;;;;;5036113;28;20326;-83
2021/04/29 04:42:04;;;;;;;5.43;2.83;;;8.40;99.90;;;;;;5021077;28;20216;-83
2021/04/29 04:44:30;;;;;;;9.23;3.23;;;8.40;99.90;;;;;;5038971;28;20185;-82
2021/04/29 04:46:55;;;;;;;6.67;3.10;;;8.40;99.90;;;;;;5054856;28;20185;-82
2021/04/29 04:49:21;;;;;;;8.23;3.43;;;8.40;99.90;;;;;;5055181;28;20217;-82
2021/04/29 04:51:47;;;;;;;5.87;4.80;;;8.40;99.90;;;;;;5038300;28;20685;-83
2021/04/29 04:54:15;;;;;;;6.37;3.80;;;8.30;99.90;;;;;;5022019;28;20231;-83
2021/04/29 04:56:41;;;;;;;4.67;3.30;;;8.30;99.90;;;;;;5038211;28;20319;-83
2021/04/29 04:59:06;;;;;;;16.23;4.33;;;8.40;99.90;;;;;;5038806;28;20336;-83
2021/04/29 05:01:32;;;;;;;5.23;3.80;;;8.40;99.90;;;;;;5038496;28;20217;-83
2021/04/29 05:03:58;;;;;;;6.27;4.23;;;8.40;99.90;;;;;;5033699;28;20224;-84
2021/04/29 05:06:24;;;;;;;9.03;3.03;;;8.40;99.90;;;;;;5035577;28;20213;-84
2021/04/29 05:08:49;;;;;;;6.80;4.63;;;8.40;99.90;;;;;;5026300;28;20213;-83
2021/04/29 05:11:15;;;;;;;5.97;3.87;;;8.50;99.90;;;;;;5037439;28;20176;-82
2021/04/29 05:13:41;;;;;;;7.83;4.23;;;8.50;99.90;;;;;;5036316;28;20289;-84
2021/04/29 05:16:07;;;;;;;5.07;3.23;;;8.70;99.90;;;;;;5052042;28;20591;-83
2021/04/29 05:18:32;;;;;;;5.27;3.90;;;9.00;99.90;;;;;;5036683;28;20274;-83
2021/04/29 05:20:58;;;;;;;9.03;4.33;;;9.40;99.90;;;;;;5053550;28;20225;-83
2021/04/29 05:23:24;;;;;;;5.37;3.60;;;9.60;99.90;;;;;;5022461;28;20254;-83
2021/04/29 05:25:50;;;;;;;4.97;3.40;;;9.60;99.90;;;;;;5022125;28;20201;-82
2021/04/29 05:28:15;;;;;;;6.67;4.77;;;9.70;99.90;;;;;;5037830;28;20217;-83
2021/04/29 05:30:41;;;;;;;3.67;2.83;;;9.80;99.90;;;;;;5039052;28;20753;-83
2021/04/29 05:33:07;;;;;;;8.07;3.43;;;9.60;99.90;;;;;;5062926;28;20236;-83
2021/04/29 05:35:34;;;;;;;11.20;3.97;;;9.50;99.90;;;;;;5056067;28;20281;-84
2021/04/29 05:37:59;;;;;;;4.77;3.83;;;9.40;99.90;;;;;;5041901;28;20201;-84
2021/04/29 05:40:25;;;;;;;11.03;3.97;;;9.30;99.90;;;;;;5040530;28;20240;-86
2021/04/29 05:42:51;;;;;;;4.60;3.60;;;9.20;99.90;;;;;;5040929;28;20220;-85
2021/04/29 05:45:17;;;;;;;5.63;4.30;;;9.10;99.90;;;;;;5038854;28;20224;-84
2021/04/29 05:47:42;;;;;;;8.50;4.03;;;9.10;99.90;;;;;;5034211;28;20213;-89
2021/04/29 05:50:09;;;;;;;6.13;4.67;;;9.10;99.90;;;;;;5050139;28;20254;-86
2021/04/29 05:52:35;;;;;;;6.13;4.13;;;9.00;99.90;;;;;;5034610;28;20282;-84
2021/04/29 05:55:01;;;;;;;3.47;3.20;;;9.00;99.90;;;;;;5054261;28;20300;-85
2021/04/29 05:57:27;;;;;;;7.00;3.87;;;9.00;99.90;;;;;;5055388;28;21133;-85
2021/04/29 05:59:52;;;;;;;3.47;2.53;;;9.10;99.90;;;;;;5072540;28;20283;-89
2021/04/29 06:02:18;;;;;;;4.83;3.93;;;9.20;99.90;;;;;;5038703;28;20722;-88
2021/04/29 06:04:44;;;;;;;9.53;6.40;;;9.40;99.90;;;;;;5055984;28;20996;-89
2021/04/29 06:07:10;;;;;;;6.10;4.43;;;9.50;99.90;;;;;;5020539;28;20209;-89
2021/04/29 06:09:36;;;;;;;8.50;3.53;;;9.70;99.90;;;;;;5053725;28;20253;-86
2021/04/29 06:12:03;;;;;;;22.07;4.87;;;9.80;99.90;;;;;;5071542;28;20223;-87
2021/04/29 06:14:28;;;;;;;5.80;3.90;;;10.60;99.90;;;;;;5053887;28;20292;-83
2021/04/29 06:16:54;;;;;;;4.77;3.93;;;10.80;99.90;;;;;;5036121;28;20554;-88
2021/04/29 06:19:20;;;;;;;8.57;5.47;;;10.60;99.90;;;;;;5054583;28;20247;-85
2021/04/29 06:21:46;;;;;;;7.33;4.47;;;10.30;99.90;;;;;;5037468;28;20197;-87
2021/04/29 06:24:12;;;;;;;4.53;4.10;;;10.10;99.90;;;;;;5054362;28;20212;-86
2021/04/29 06:26:38;;;;;;;7.43;4.40;;;9.80;99.90;;;;;;5055023;28;20224;-86
2021/04/29 06:29:04;;;;;;;5.00;3.83;;;9.60;99.90;;;;;;5040416;28;21003;-85
2021/04/29 06:31:30;;;;;;;8.57;4.37;;;9.40;99.90;;;;;;5052882;28;20232;-86
2021/04/29 06:33:55;;;;;;;7.20;5.00;;;9.40;99.90;;;;;;5053441;28;20313;-86
2021/04/29 06:36:21;;;;;;;7.70;4.80;;;9.30;99.90;;;;;;5037353;28;20232;-86
2021/04/29 06:38:47;;;;;;;12.77;3.90;;;9.30;99.90;;;;;;5057027;28;20216;-88
2021/04/29 06:41:13;;;;;;;4.53;3.80;;;9.20;99.90;;;;;;5056872;28;20185;-86
2021/04/29 06:43:38;;;;;;;7.77;4.30;;;9.20;99.90;;;;;;5022062;28;20250;-85
2021/04/29 06:46:04;;;;;;;5.60;2.37;;;9.20;99.90;;;;;;5021912;28;20209;-85
2021/04/29 06:48:30;;;;;;;4.50;3.87;;;9.00;99.90;;;;;;5071893;28;20228;-84
2021/04/29 06:50:56;;;;;;;5.67;3.97;;;9.00;99.90;;;;;;5037839;28;20236;-84
2021/04/29 06:53:21;;;;;;;5.23;3.50;;;9.00;99.90;;;;;;5065308;28;20204;-88
2021/04/29 06:55:48;;;;;;;4.90;3.70;;;8.90;99.90;;;;;;5019053;28;20226;-86
2021/04/29 06:58:16;;;;;;;6.00;5.30;;;8.90;99.90;;;;;;5046213;28;20680;-87
2021/04/29 07:00:42;;;;;;;7.73;4.97;;;8.90;99.90;;;;;;5017686;28;20316;-86
2021/04/29 07:03:07;;;;;;;6.27;4.73;;;8.90;99.90;;;;;;5014849;28;21166;-87
2021/04/29 07:05:33;;;;;;;9.47;4.60;;;8.80;99.90;;;;;;5016253;28;20220;-88
2021/04/29 07:07:59;;;;;;;9.27;4.30;;;8.90;99.90;;;;;;5072308;28;20196;-86
2021/04/29 07:10:25;;;;;;;4.80;4.33;;;8.90;99.90;;;;;;5036100;28;20261;-87
2021/04/29 07:12:51;;;;;;;7.40;4.20;;;8.80;99.90;;;;;;5052285;28;20223;-87
2021/04/29 07:15:18;;;;;;;6.43;5.53;;;8.90;99.90;;;;;;5054343;28;20690;-86
2021/04/29 07:17:46;;;;;;;7.77;5.53;;;8.90;99.90;;;;;;5071261;28;20216;-87
2021/04/29 07:20:13;;;;;;;9.50;5.73;;;8.90;99.90;;;;;;5050762;28;20189;-89
2021/04/29 07:22:38;;;;;;;4.30;3.80;;;9.00;99.90;;;;;;5037247;28;20193;-86
2021/04/29 07:25:07;;;;;;;4.30;3.70;;;9.00;99.90;;;;;;5036082;28;20538;-90
2021/04/29 07:27:34;;;;;;;7.87;3.83;;;9.00;99.90;;;;;;5035532;28;20224;-86
2021/04/29 07:30:00;;;;;;;5.63;3.03;;;9.00;99.90;;;;;;5070774;28;20579;-86
2021/04/29 07:32:26;;;;;;;3.97;3.23;;;9.00;99.90;;;;;;5050910;28;20208;-88
2021/04/29 07:34:52;;;;;;;10.33;4.83;;;8.90;99.90;;;;;;5022259;28;20188;-89
2021/04/29 07:37:18;;;;;;;6.70;4.27;;;9.00;99.90;;;;;;5028398;28;20745;-88
2021/04/29 07:39:43;;;;;;;10.10;3.33;;;8.90;99.90;;;;;;5019684;28;21123;-88
2021/04/29 07:42:09;;;;;;;6.73;4.73;;;8.90;99.90;;;;;;5036911;28;20248;-88
2021/04/29 07:44:35;;;;;;;6.47;4.77;;;8.90;99.90;;;;;;5038194;28;20216;-87
2021/04/29 07:47:00;;;;;;;10.57;4.07;;;8.90;99.90;;;;;;5021232;28;21388;-87
2021/04/29 07:49:27;;;;;;;8.40;3.70;;;8.80;99.90;;;;;;5053013;28;20324;-86
2021/04/29 07:51:52;;;;;;;6.50;4.30;;;8.80;99.90;;;;;;5072109;28;20260;-87
2021/04/29 07:54:18;;;;;;;7.03;4.30;;;8.80;99.90;;;;;;5038375;28;20600;-88
2021/04/29 07:56:45;;;;;;;16.70;5.17;;;8.80;99.90;;;;;;5053841;28;20221;-87
2021/04/29 07:59:11;;;;;;;7.33;5.20;;;8.80;99.90;;;;;;5055016;28;20240;-87
2021/04/29 08:01:38;;;;;;;5.07;4.20;;;8.90;99.90;;;;;;5041089;28;20538;-87
2021/04/29 08:04:03;;;;;;;5.83;4.20;;;8.80;99.90;;;;;;5040975;28;20776;-88
2021/04/29 08:06:29;;;;;;;3.33;2.97;;;8.80;99.90;;;;;;5033354;28;20213;-87
2021/04/29 08:08:56;;;;;;;7.07;5.37;;;8.70;99.90;;;;;;5037237;28;20227;-85
2021/04/29 08:11:22;;;;;;;8.83;4.73;;;8.80;99.90;;;;;;5039973;28;20189;-87
2021/04/29 08:13:47;;;;;;;5.40;4.50;;;8.80;99.90;;;;;;5075972;28;20693;-87
2021/04/29 08:16:13;;;;;;;4.77;4.43;;;8.70;99.90;;;;;;5023081;28;20685;-89
2021/04/29 08:18:39;;;;;;;5.67;4.37;;;8.80;99.90;;;;;;5072286;28;20213;-87
2021/04/29 08:21:07;;;;;;;4.87;3.93;;;8.80;99.90;;;;;;5023615;28;20220;-86
2021/04/29 08:23:34;;;;;;;18.10;5.90;;;8.80;99.90;;;;;;5056169;28;20308;-89
2021/04/29 08:26:00;;;;;;;6.07;4.63;;;8.80;99.90;;;;;;5041598;28;20186;-88
2021/04/29 08:28:26;;;;;;;7.23;5.40;;;8.80;99.90;;;;;;5038784;28;20223;-87
2021/04/29 08:30:52;;;;;;;7.23;3.93;;;8.70;99.90;;;;;;5038662;28;20220;-90
2021/04/29 08:33:17;;;;;;;11.17;4.90;;;8.70;99.90;;;;;;5038304;28;20273;-87
2021/04/29 08:35:43;;;;;;;6.43;4.47;;;8.80;99.90;;;;;;5040404;28;20229;-89
2021/04/29 08:38:09;;;;;;;6.50;4.27;;;8.80;99.90;;;;;;5027424;28;20638;-87
2021/04/29 08:40:34;;;;;;;4.27;3.27;;;8.80;99.90;;;;;;5038919;28;20242;-87
2021/04/29 08:43:00;;;;;;;4.70;4.30;;;8.80;99.90;;;;;;5041344;28;20225;-88
2021/04/29 08:45:26;;;;;;;5.87;4.70;;;8.70;99.90;;;;;;5072688;28;20575;-86
2021/04/29 08:47:54;;;;;;;7.83;4.23;;;8.70;99.90;;;;;;5071248;28;20213;-89
2021/04/29 08:50:22;;;;;;;8.37;5.00;;;8.70;99.90;;;;;;5055509;28;20560;-88
2021/04/29 08:52:48;;;;;;;7.23;4.80;;;8.60;99.90;;;;;;5058592;28;20209;-89
2021/04/29 08:55:21;;;;;;;4.37;3.87;;;8.60;99.90;;;;;;5023852;28;20358;-88
2021/04/29 08:57:47;;;;;;;9.00;4.90;;;8.70;99.90;;;;;;5072503;28;20262;-86
2021/04/29 09:00:15;;;;;;;7.87;5.53;;;8.70;99.90;;;;;;5036674;28;21027;-86
2021/04/29 09:02:42;;;;;;;11.17;5.87;;;8.60;99.90;;;;;;5039711;28;20217;-87
2021/04/29 09:05:14;;;;;;;7.97;4.83;;;8.70;99.90;;;;;;5057774;28;20189;-86
2021/04/29 09:07:50;;;;;;;7.87;5.43;;;8.70;99.90;;;;;;5054294;28;20217;-87
2021/04/29 09:10:23;;;;;;;11.00;6.33;;;8.70;99.90;;;;;;5058986;28;20303;-86
2021/04/29 09:12:48;;;;;;;6.10;5.50;;;8.70;99.90;;;;;;5054032;28;20260;-86
2021/04/29 09:15:24;;;;;;;8.70;5.27;;;8.60;99.90;;;;;;5053606;28;20919;-89
2021/04/29 09:18:02;;;;;;;7.53;4.97;;;8.60;99.90;;;;;;5055164;28;20243;-87
2021/04/29 09:20:28;;;;;;;6.87;5.63;;;8.50;99.90;;;;;;5052995;28;20209;-88
2021/04/29 09:23:06;;;;;;;9.33;5.23;;;8.60;99.90;;;;;;5038252;28;20277;-86
2021/04/29 09:25:33;;;;;;;7.43;5.23;;;8.60;99.90;;;;;;5054348;28;20217;-87
2021/04/29 09:27:59;;;;;;;8.87;4.17;;;8.60;99.90;;;;;;5055643;28;20284;-86
2021/04/29 09:30:28;;;;;;;6.27;3.80;;;8.60;99.90;;;;;;5054320;28;20308;-86
2021/04/29 09:32:59;;;;;;;6.20;5.13;;;8.60;99.90;;;;;;5054308;28;20229;-85
2021/04/29 09:35:26;;;;;;;9.47;6.13;;;8.70;99.90;;;;;;5055081;28;20276;-87
2021/04/29 09:37:58;;;;;;;4.50;4.10;;;8.70;99.90;;;;;;5055954;28;20221;-86
2021/04/29 09:40:29;;;;;;;3.67;3.27;;;8.70;99.90;;;;;;5056268;28;20240;-88
2021/04/29 09:42:57;;;;;;;4.23;3.60;;;8.60;99.90;;;;;;5054493;28;20220;-86
2021/04/29 09:45:26;;;;;;;8.87;5.13;;;8.60;99.90;;;;;;5038454;28;20347;-88
2021/04/29 09:48:00;;;;;;;5.50;4.13;;;8.60;99.90;;;;;;5053790;28;20213;-85
2021/04/29 09:50:28;;;;;;;9.93;4.67;;;8.60;99.90;;;;;;5037257;28;20257;-85
2021/04/29 09:53:06;;;;;;;7.97;5.23;;;8.60;99.90;;;;;;5056028;28;20211;-86
2021/04/29 09:55:34;;;;;;;6.40;4.20;;;8.50;99.90;;;;;;5055184;28;20216;-87
2021/04/29 09:58:09;;;;;;;8.97;5.03;;;8.60;99.90;;;;;;5054374;28;20320;-87
2021/04/29 10:00:36;;;;;;;11.43;5.30;;;8.70;99.90;;;;;;5053989;28;20542;-87
2021/04/29 10:03:02;;;;;;;9.73;5.50;;;8.60;99.90;;;;;;5038082;28;20230;-87
2021/04/29 10:05:29;;;;;;;6.40;4.20;;;8.70;99.90;;;;;;5038884;28;20188;-86
2021/04/29 10:07:55;;;;;;;11.83;5.03;;;8.60;99.90;;;;;;5039688;28;20193;-86
2021/04/29 10:10:22;;;;;;;7.33;5.07;;;8.60;99.90;;;;;;5056881;28;20216;-85
2021/04/29 10:12:49;;;;;;;8.47;4.23;;;8.60;99.90;;;;;;5056499;28;20271;-87
2021/04/29 10:15:16;;;;;;;7.87;4.13;;;8.60;99.90;;;;;;5054886;28;20304;-87
2021/04/29 10:17:42;;;;;;;9.13;6.70;;;8.60;99.90;;;;;;5039339;28;20240;-87
2021/04/29 10:20:12;;;;;;;3.70;3.37;;;8.60;99.90;;;;;;5038524;28;20311;-86
2021/04/29 10:22:38;;;;;;;13.23;5.77;;;8.60;99.90;;;;;;5039996;28;20216;-85
2021/04/29 10:25:04;;;;;;;14.60;6.47;;;8.60;99.90;;;;;;5044995;28;21296;-88
2021/04/29 10:27:30;;;;;;;11.17;4.93;;;8.60;99.90;;;;;;5057424;28;20220;-88
2021/04/29 10:30:07;;;;;;;6.93;4.87;;;8.60;99.90;;;;;;5038077;28;20219;-86
2021/04/29 10:32:34;;;;;;;9.10;6.03;;;8.70;99.90;;;;;;5071337;28;20237;-87
2021/04/29 10:35:12;;;;;;;8.23;4.60;;;8.70;99.90;;;;;;5073748;28;20193;-88
2021/04/29 10:37:38;;;;;;;3.27;2.93;;;8.70;99.90;;;;;;5040193;28;20310;-89
2021/04/29 10:40:06;;;;;;;6.07;4.20;;;8.70;99.90;;;;;;5051767;28;20221;-88
2021/04/29 10:42:44;;;;;;;3.63;3.17;;;8.70;99.90;;;;;;5038146;28;20224;-87
2021/04/29 10:45:11;;;;;;;5.47;3.40;;;8.70;99.90;;;;;;5038739;28;20231;-89
2021/04/29 10:47:38;;;;;;;5.97;4.20;;;8.60;99.90;;;;;;5038565;28;20310;-86
2021/04/29 10:50:18;;;;;;;8.87;4.77;;;8.60;99.90;;;;;;5038299;28;20419;-88
2021/04/29 10:52:55;;;;;;;5.17;4.67;;;8.60;99.90;;;;;;5053887;28;20220;-87
2021/04/29 10:55:35;;;;;;;9.40;5.80;;;8.60;99.90;;;;;;5037393;28;20217;-88
2021/04/29 10:58:02;;;;;;;7.20;5.20;;;8.60;99.90;;;;;;5054030;28;20686;-89
2021/04/29 11:00:29;;;;;;;4.63;3.50;;;8.70;99.90;;;;;;5037559;28;20213;-86
2021/04/29 11:03:07;;;;;;;6.83;5.07;;;8.60;99.90;;;;;;5053633;28;20290;-88
2021/04/29 11:05:35;;;;;;;4.67;4.17;;;8.60;99.90;;;;;;5052257;28;20221;-90
2021/04/29 11:08:08;;;;;;;5.30;3.70;;;8.60;99.90;;;;;;5036321;28;20200;-87
2021/04/29 11:10:36;;;;;;;4.87;3.80;;;8.60;99.90;;;;;;5072668;28;20231;-88
2021/04/29 11:13:03;;;;;;;8.10;4.00;;;8.60;99.90;;;;;;5052697;28;20321;-87
2021/04/29 11:15:40;;;;;;;3.87;3.17;;;8.60;99.90;;;;;;5035026;28;20233;-84
2021/04/29 11:18:18;;;;;;;5.70;4.70;;;8.70;99.90;;;;;;5052598;28;20285;-87
2021/04/29 11:20:44;;;;;;;11.20;5.10;;;8.70;99.90;;;;;;5051798;28;20239;-85
2021/04/29 11:23:10;;;;;;;5.40;3.70;;;8.70;99.90;;;;;;5055636;28;20197;-82
2021/04/29 11:25:38;;;;;;;15.77;5.10;;;8.70;99.90;;;;;;5053526;28;20223;-83
2021/04/29 11:28:05;;;;;;;4.80;4.30;;;8.70;99.90;;;;;;5068928;28;21167;-83
2021/04/29 11:30:30;;;;;;;6.23;4.37;;;8.70;99.90;;;;;;5051672;28;20240;-85
2021/04/29 11:33:01;;;;;;;8.87;5.47;;;8.70;99.90;;;;;;5036209;28;20698;-85
2021/04/29 11:35:35;;;;;;;6.60;3.00;;;8.70;99.90;;;;;;5050217;28;20590;-86
2021/04/29 11:38:04;;;;;;;8.43;5.17;;;8.60;99.90;;;;;;5037576;28;20211;-88
2021/04/29 11:40:33;;;;;;;5.07;4.57;;;8.70;99.90;;;;;;5051085;28;20302;-84
2021/04/29 11:43:00;;;;;;;14.87;5.37;;;8.70;99.90;;;;;;5055147;28;20278;-82
2021/04/29 11:45:41;;;;;;;4.97;4.13;;;8.70;99.90;;;;;;5037637;28;20295;-84
2021/04/29 11:48:08;;;;;;;12.93;4.47;;;8.70;99.90;;;;;;5073427;28;20303;-81
2021/04/29 11:50:42;;;;;;;10.13;6.20;;;8.70;99.90;;;;;;5055539;28;20804;-84
2021/04/29 11:53:16;;;;;;;10.17;5.33;;;8.80;99.90;;;;;;5057778;28;20669;-82
2021/04/29 11:55:42;;;;;;;11.63;7.10;;;8.90;99.90;;;;;;5057219;28;20228;-82
2021/04/29 11:58:14;;;;;;;6.30;5.30;;;8.90;99.90;;;;;;5051825;28;20236;-82
2021/04/29 12:00:42;;;;;;;8.63;5.40;;;8.90;99.90;;;;;;5070358;28;20266;-85
2021/04/29 12:03:09;;;;;;;8.33;6.20;;;8.90;99.90;;;;;;5054212;28;20337;-84
2021/04/29 12:05:46;;;;;;;7.80;6.17;;;8.90;99.90;;;;;;5054424;28;20225;-83
2021/04/29 12:08:18;;;;;;;12.73;5.17;;;9.00;99.90;;;;;;5052042;28;20190;-85
2021/04/29 12:10:45;;;;;;;5.43;3.67;;;8.90;99.90;;;;;;5057009;28;20182;-83
2021/04/29 12:13:12;;;;;;;8.77;5.10;;;9.00;99.90;;;;;;5055759;28;20226;-83
2021/04/29 12:15:38;;;;;;;4.57;4.27;;;9.00;99.90;;;;;;5053348;28;20312;-84
2021/04/29 12:18:04;;;;;;;4.00;3.77;;;9.00;99.90;;;;;;5037527;28;20690;-84
2021/04/29 12:20:31;;;;;;;7.00;3.50;;;9.00;99.90;;;;;;5051278;28;20209;-84
2021/04/29 12:22:57;;;;;;;6.03;4.17;;;8.90;99.90;;;;;;5055176;28;20192;-83
2021/04/29 12:25:23;;;;;;;6.30;4.67;;;9.00;99.90;;;;;;5037354;28;20225;-84
2021/04/29 12:27:49;;;;;;;24.43;4.10;;;8.90;99.90;;;;;;5022706;28;20212;-87
2021/04/29 12:30:15;;;;;;;8.33;5.03;;;9.00;99.90;;;;;;5037283;28;20279;-86
2021/04/29 12:32:46;;;;;;;8.47;5.80;;;9.00;99.90;;;;;;5035751;28;20244;-87
2021/04/29 12:35:26;;;;;;;6.40;4.50;;;9.00;99.90;;;;;;5052572;28;20268;-85
2021/04/29 12:37:52;;;;;;;8.00;5.13;;;8.90;99.90;;;;;;5056259;28;20189;-87
2021/04/29 12:40:29;;;;;;;6.90;4.43;;;8.90;99.90;;;;;;5037436;28;20244;-87
2021/04/29 12:43:09;;;;;;;2.47;2.27;;;8.90;99.90;;;;;;5047320;28;20220;-88
2021/04/29 12:45:55;;;;;;;6.37;4.90;;;8.90;99.90;;;;;;5050571;28;20228;-88
2021/04/29 12:48:35;;;;;;;8.63;2.20;;;8.90;99.90;;;;;;5060217;28;20601;-87
2021/04/29 12:51:05;;;;;;;10.67;5.37;;;8.90;99.90;;;;;;5052272;28;20224;-87
2021/04/29 12:53:32;;;;;;;4.27;3.47;;;8.90;99.90;;;;;;5052075;28;21006;-89
2021/04/29 12:55:58;;;;;;;10.63;3.97;;;8.90;99.90;;;;;;5052478;28;20190;-87
2021/04/29 12:58:29;;;;;;;4.50;4.00;;;8.90;99.90;;;;;;5052177;28;20248;-87